North Oaks, Minnesota
Current Conditions -  °F | °C
As of 4:45 PM on Tuesday 27 Jan 2015 (Local Time) from KANE Reporting Station
Overcast Overcast  
Wind Chill: 28°   Ceiling: 2000
Heat Index: 34°   Visibility: 10mi
Dew Point: 27°   Wind: 7mph
Humidity: 75%   Direction: 150°SSE
Pressure: 30.13"   Gusts: NA
Location:  45.0841°N, 93.0819°W
Report Text: KANE 272245Z 15006KT 10SM OVC020 01/M03 A3013
Loading
Personal Weather Stations






























Interactive Weather Map New forecast layout! Learn more

10-Day Weather Forecast

Advertisements
Track Severe Weather on mobile